Time;durP1;ratioP1;P1;durP2;ratioP2;P2;SDS_P1;SDS_P2;PMS_P1;PMS_P2;Temp;Humidity;BMP_temperature;BMP_pressure;BME280_temperature;BME280_humidity;BME280_pressure;Samples;Min_cycle;Max_cycle;Signal;HPM_P1;HPM_P2
2022/10/09 00:00:33;;;;;;;5.80;5.10;;;;;;;10.10;92.00;98938.31;4124855;28;20573;-92
2022/10/09 00:02:36;;;;;;;8.13;5.00;;;;;;;10.08;91.75;98940.13;4094023;28;21203;-92
2022/10/09 00:04:39;;;;;;;9.68;5.10;;;;;;;10.07;91.78;98937.59;4115150;28;20716;-92
2022/10/09 00:06:42;;;;;;;12.20;5.20;;;;;;;10.07;92.09;98938.47;4108627;28;20217;-92
2022/10/09 00:08:45;;;;;;;8.10;5.20;;;;;;;10.06;91.56;98942.00;4109744;28;20643;-92
2022/10/09 00:10:49;;;;;;;7.43;4.50;;;;;;;10.08;93.24;98932.31;4106170;28;20291;-93
2022/10/09 00:12:52;;;;;;;8.30;4.90;;;;;;;10.08;93.21;98929.72;4112907;28;20223;-92
2022/10/09 00:14:56;;;;;;;7.72;5.13;;;;;;;10.09;92.96;98935.78;4092386;28;20213;-92
2022/10/09 00:16:59;;;;;;;14.43;4.95;;;;;;;10.07;93.10;98929.78;4088824;28;20795;-93
2022/10/09 00:19:02;;;;;;;12.45;5.18;;;;;;;10.03;93.15;98928.28;4109401;28;20208;-92
2022/10/09 00:21:06;;;;;;;7.57;5.00;;;;;;;10.02;92.96;98926.59;4094535;28;20607;-93
2022/10/09 00:23:09;;;;;;;6.63;4.90;;;;;;;10.00;93.19;98926.66;4109239;28;20726;-92
2022/10/09 00:25:12;;;;;;;6.45;4.80;;;;;;;9.96;93.36;98924.31;4106252;28;20196;-93
2022/10/09 00:27:15;;;;;;;7.50;5.00;;;;;;;9.93;93.11;98930.50;4094728;28;20249;-93
2022/10/09 00:29:19;;;;;;;7.07;4.53;;;;;;;9.91;93.02;98921.91;4099939;28;20217;-92
2022/10/09 00:31:23;;;;;;;6.75;4.97;;;;;;;9.89;92.74;98923.75;4124135;28;20208;-93
2022/10/09 00:33:26;;;;;;;8.68;4.65;;;;;;;9.86;92.60;98925.66;4103958;28;20208;-92
2022/10/09 00:35:29;;;;;;;5.70;4.53;;;;;;;9.82;91.77;98926.75;4091741;28;20724;-93
2022/10/09 00:37:32;;;;;;;8.73;4.47;;;;;;;9.81;92.37;98919.03;4093704;28;20241;-95
2022/10/09 00:39:36;;;;;;;6.95;5.88;;;;;;;9.78;92.27;98913.97;4109926;28;20763;-94
2022/10/09 00:41:40;;;;;;;5.97;4.38;;;;;;;9.79;92.01;98915.63;4091692;28;20242;-92
2022/10/09 00:43:45;;;;;;;7.18;4.63;;;;;;;9.76;92.53;98915.78;4109034;28;20307;-93
2022/10/09 00:45:50;;;;;;;8.00;4.63;;;;;;;9.74;92.40;98913.31;4113404;28;20229;-92
2022/10/09 00:47:57;;;;;;;7.25;5.25;;;;;;;9.76;92.99;98911.44;4093529;28;20224;-93
2022/10/09 00:50:05;;;;;;;9.80;5.53;;;;;;;9.76;92.47;98916.66;4111958;28;20211;-93
2022/10/09 00:52:08;;;;;;;8.35;5.30;;;;;;;9.70;92.23;98919.59;4113567;28;20214;-93
2022/10/09 00:54:13;;;;;;;7.45;4.93;;;;;;;9.70;93.12;98916.16;4125297;28;20890;-93
2022/10/09 00:56:17;;;;;;;8.30;5.35;;;;;;;9.69;93.32;98914.44;4109458;28;20221;-93
2022/10/09 00:58:20;;;;;;;7.72;5.18;;;;;;;9.66;93.40;98912.00;4094302;28;20214;-93
2022/10/09 01:00:23;;;;;;;6.28;5.20;;;;;;;9.62;92.56;98908.72;4113264;28;20205;-94
2022/10/09 01:02:27;;;;;;;10.30;4.95;;;;;;;9.60;92.64;98912.31;4110282;28;20736;-92
2022/10/09 01:04:32;;;;;;;7.72;4.32;;;;;;;9.60;92.13;98904.50;4110145;28;20224;-93
2022/10/09 01:06:43;;;;;;;8.73;5.47;;;;;;;9.56;92.62;98906.44;4109960;28;20311;-93
2022/10/09 01:08:51;;;;;;;10.63;4.82;;;;;;;9.55;92.35;98907.34;4108508;28;20217;-91
2022/10/09 01:10:59;;;;;;;8.65;5.40;;;;;;;9.55;92.88;98901.31;4096035;28;20207;-93
2022/10/09 01:13:07;;;;;;;9.50;4.80;;;;;;;9.56;92.84;98908.19;4111961;28;20208;-93
2022/10/09 01:15:17;;;;;;;6.72;4.78;;;;;;;9.53;92.43;98900.53;4111385;28;20208;-93
2022/10/09 01:17:25;;;;;;;6.28;4.60;;;;;;;9.52;92.35;98897.09;4094178;28;20205;-93
2022/10/09 01:20:03;;;;;;;7.00;4.55;;;;;;;9.51;92.22;98895.41;4116388;28;20291;-92
2022/10/09 01:22:16;;;;;;;7.95;4.45;;;;;;;9.51;92.39;98889.34;4126052;28;20239;-92
2022/10/09 01:24:25;;;;;;;7.28;4.65;;;;;;;9.48;92.93;98884.31;4108589;28;20244;-93
2022/10/09 01:27:11;;;;;;;6.25;4.20;;;;;;;9.46;93.08;98886.16;4125386;28;20239;-92
2022/10/09 01:29:14;;;;;;;5.22;4.45;;;;;;;9.45;92.72;98887.91;4028907;29;20372;-93
2022/10/09 01:31:19;;;;;;;8.18;5.10;;;;;;;9.43;93.04;98892.34;4037021;29;20219;-93
2022/10/09 01:33:23;;;;;;;5.93;4.53;;;;;;;9.39;92.49;98884.78;4026076;29;20779;-92
2022/10/09 01:35:27;;;;;;;11.40;5.65;;;;;;;9.39;92.71;98892.56;4112877;28;20263;-93
2022/10/09 01:37:30;;;;;;;6.68;4.43;;;;;;;9.40;92.70;98883.88;4125065;28;20313;-93
2022/10/09 01:39:35;;;;;;;6.18;5.25;;;;;;;9.41;93.39;98883.78;4113662;28;20215;-93
2022/10/09 01:41:38;;;;;;;5.60;4.93;;;;;;;9.43;93.51;98881.09;4113049;28;20201;-93
2022/10/09 01:43:43;;;;;;;6.13;4.40;;;;;;;9.42;93.23;98882.00;4106976;28;20336;-93
2022/10/09 01:45:48;;;;;;;7.90;5.38;;;;;;;9.38;92.48;98875.28;4094299;28;20253;-93
2022/10/09 01:47:52;;;;;;;8.00;5.07;;;;;;;9.33;92.40;98866.03;4091459;28;20280;-93
2022/10/09 01:49:59;;;;;;;7.88;5.85;;;;;;;9.31;92.71;98868.72;4093769;28;20823;-93
2022/10/09 01:52:07;;;;;;;6.63;5.15;;;;;;;9.25;91.77;98869.03;4114459;28;20200;-93
2022/10/09 01:54:13;;;;;;;8.73;6.28;;;;;;;9.22;92.27;98870.94;4117404;28;20239;-93
2022/10/09 01:56:21;;;;;;;7.68;4.60;;;;;;;9.20;92.67;98863.22;4103250;28;20265;-93
2022/10/09 01:58:29;;;;;;;12.30;5.70;;;;;;;9.21;93.90;98862.28;4108446;28;20261;-93
2022/10/09 02:00:37;;;;;;;13.00;8.70;;;;;;;9.20;93.43;98864.94;4110038;28;20650;-93
2022/10/09 02:02:41;;;;;;;8.55;7.30;;;;;;;9.17;92.35;98858.16;4120473;28;20251;-93
2022/10/09 02:04:45;;;;;;;32.80;29.30;;;;;;;9.09;91.78;98854.25;4091236;28;20233;-93
2022/10/09 02:06:49;;;;;;;26.25;23.55;;;;;;;9.01;90.23;98854.63;4110284;28;20764;-93
2022/10/09 02:08:54;;;;;;;24.70;22.05;;;;;;;8.97;91.63;98847.06;4108994;28;20228;-93
2022/10/09 02:10:58;;;;;;;11.25;9.65;;;;;;;8.99;92.39;98847.81;4107858;28;21449;-91
2022/10/09 02:13:02;;;;;;;14.40;10.70;;;;;;;9.03;91.95;98847.59;4089826;28;20260;-92
2022/10/09 02:15:07;;;;;;;7.18;5.65;;;;;;;9.05;92.33;98845.78;4094724;28;20208;-93
2022/10/09 02:17:15;;;;;;;9.60;7.57;;;;;;;9.06;92.94;98846.59;4092757;28;20291;-94
2022/10/09 02:19:23;;;;;;;8.07;5.60;;;;;;;9.07;93.61;98845.69;4110818;28;20231;-93
2022/10/09 02:21:33;;;;;;;7.15;5.15;;;;;;;9.06;93.88;98846.59;4110755;28;20205;-91
2022/10/09 02:23:37;;;;;;;9.55;4.80;;;;;;;9.04;92.58;98841.47;4092115;28;20324;-93
2022/10/09 02:25:41;;;;;;;7.65;4.97;;;;;;;9.03;93.28;98839.78;4090758;28;20209;-93
2022/10/09 02:27:45;;;;;;;7.13;5.22;;;;;;;9.05;93.06;98843.16;4107165;28;20256;-93
2022/10/09 02:29:49;;;;;;;5.53;4.63;;;;;;;9.05;93.89;98837.97;4110109;28;20205;-92
2022/10/09 02:31:52;;;;;;;6.85;4.43;;;;;;;9.04;93.04;98831.06;4110740;28;20217;-93
2022/10/09 02:33:58;;;;;;;8.75;5.40;;;;;;;9.03;92.55;98839.78;4115564;28;20701;-93
2022/10/09 02:36:01;;;;;;;8.30;5.00;;;;;;;9.05;92.87;98839.72;4115376;28;20239;-93
2022/10/09 02:38:05;;;;;;;9.45;5.00;;;;;;;9.02;92.89;98832.91;4107101;28;20300;-92
2022/10/09 02:40:09;;;;;;;5.43;4.93;;;;;;;9.03;93.65;98837.19;4111865;28;20209;-91
2022/10/09 02:42:13;;;;;;;7.10;4.70;;;;;;;9.00;93.24;98829.53;4094168;28;20697;-93
2022/10/09 02:44:17;;;;;;;5.85;4.50;;;;;;;8.99;93.00;98830.47;4095061;28;20253;-92
2022/10/09 02:46:20;;;;;;;9.18;5.43;;;;;;;8.94;92.98;98827.28;4113199;28;20291;-93
2022/10/09 02:48:24;;;;;;;8.68;6.60;;;;;;;8.86;90.83;98822.53;4090470;28;21196;-93
2022/10/09 02:50:29;;;;;;;6.35;4.93;;;;;;;8.83;90.77;98825.28;4122960;28;20660;-92
2022/10/09 02:52:32;;;;;;;6.63;4.25;;;;;;;8.81;92.04;98827.94;4123956;28;20679;-92
2022/10/09 02:54:35;;;;;;;11.32;5.25;;;;;;;8.85;92.04;98821.66;4116379;28;20404;-91
2022/10/09 02:56:38;;;;;;;8.68;4.85;;;;;;;8.82;92.71;98827.00;4108089;28;20706;-93
2022/10/09 02:58:41;;;;;;;6.72;5.50;;;;;;;8.79;92.36;98831.53;4114867;28;20212;-92
2022/10/09 03:00:48;;;;;;;8.50;5.80;;;;;;;8.73;92.47;98829.22;4112883;28;20208;-92
2022/10/09 03:02:51;;;;;;;7.90;4.70;;;;;;;8.68;92.03;98826.84;4110295;28;20210;-92
2022/10/09 03:04:55;;;;;;;7.53;5.07;;;;;;;8.71;92.62;98823.28;4115934;28;20315;-92
2022/10/09 03:06:59;;;;;;;10.00;6.07;;;;;;;8.73;93.39;98827.47;4111467;28;20212;-92
2022/10/09 03:09:02;;;;;;;6.78;4.93;;;;;;;8.72;93.73;98825.81;4095566;28;21264;-91
2022/10/09 03:11:05;;;;;;;7.60;5.20;;;;;;;8.74;93.32;98830.94;4109973;28;20298;-92
2022/10/09 03:13:09;;;;;;;10.88;8.23;;;;;;;8.70;92.34;98826.78;4111281;28;20266;-91
2022/10/09 03:15:12;;;;;;;6.95;5.07;;;;;;;8.64;91.72;98829.69;4105435;28;20599;-92
2022/10/09 03:17:16;;;;;;;8.15;6.07;;;;;;;8.65;92.44;98824.41;4088373;28;20238;-92
2022/10/09 03:19:18;;;;;;;7.10;5.28;;;;;;;8.62;91.76;98824.56;4106603;28;20882;-92
2022/10/09 03:21:23;;;;;;;7.15;5.13;;;;;;;8.64;92.87;98819.28;4108287;28;20205;-93
2022/10/09 03:23:27;;;;;;;6.63;5.20;;;;;;;8.66;91.96;98828.69;4108823;28;20259;-92
2022/10/09 03:25:30;;;;;;;8.93;6.05;;;;;;;8.65;93.98;98820.97;4090670;28;20272;-92
2022/10/09 03:27:33;;;;;;;5.43;4.20;;;;;;;8.65;93.49;98819.22;4109176;28;20672;-93
2022/10/09 03:29:36;;;;;;;7.20;4.78;;;;;;;8.65;93.09;98820.97;4107766;28;20206;-92
2022/10/09 03:31:39;;;;;;;6.65;4.70;;;;;;;8.64;93.55;98824.47;4106969;28;20206;-92
2022/10/09 03:33:54;;;;;;;7.50;4.15;;;;;;;8.64;94.53;98821.88;4095629;28;20284;-92
2022/10/09 03:35:57;;;;;;;5.93;4.78;;;;;;;8.64;93.26;98819.28;4094076;28;20239;-92
2022/10/09 03:38:00;;;;;;;6.50;4.85;;;;;;;8.61;94.09;98820.25;4110886;28;20287;-92
2022/10/09 03:40:05;;;;;;;7.13;4.45;;;;;;;8.61;93.96;98822.03;4108381;28;20217;-93
2022/10/09 03:42:08;;;;;;;7.40;4.15;;;;;;;8.62;93.69;98824.56;4112687;28;20247;-92
2022/10/09 03:44:11;;;;;;;5.60;4.70;;;;;;;8.62;94.74;98821.13;4121667;28;20215;-92
2022/10/09 03:46:14;;;;;;;8.13;4.60;;;;;;;8.60;94.05;98817.75;4123640;28;20211;-92
2022/10/09 03:48:17;;;;;;;6.40;4.40;;;;;;;8.61;94.05;98819.44;4107055;28;20990;-92
2022/10/09 03:50:20;;;;;;;8.82;5.05;;;;;;;8.61;93.45;98816.84;4106587;28;20732;-92
2022/10/09 03:52:24;;;;;;;7.75;4.53;;;;;;;8.61;94.68;98825.47;4112313;28;20212;-92
2022/10/09 03:54:27;;;;;;;5.35;4.15;;;;;;;8.59;93.91;98816.91;4123700;28;20227;-92
2022/10/09 03:56:31;;;;;;;6.88;5.07;;;;;;;8.61;94.09;98816.84;4113616;28;20234;-92
2022/10/09 03:58:34;;;;;;;6.00;5.40;;;;;;;8.58;93.62;98815.22;4115509;28;20639;-94
2022/10/09 04:00:37;;;;;;;6.65;4.38;;;;;;;8.56;93.69;98819.66;4094315;28;20610;-94
2022/10/09 04:02:40;;;;;;;5.50;4.60;;;;;;;8.57;93.72;98820.53;4092213;28;20209;-95
2022/10/09 04:04:44;;;;;;;6.35;5.05;;;;;;;8.55;93.45;98815.41;4109661;28;20578;-95
2022/10/09 04:06:47;;;;;;;6.07;4.70;;;;;;;8.58;94.57;98825.59;4109194;28;20211;-95
2022/10/09 04:08:50;;;;;;;10.73;4.80;;;;;;;8.56;93.03;98826.63;4111861;28;20213;-94
2022/10/09 04:10:56;;;;;;;5.82;4.70;;;;;;;8.58;94.17;98832.56;4112523;28;20243;-94
2022/10/09 04:13:01;;;;;;;6.13;4.85;;;;;;;8.65;95.12;98831.38;4097390;28;20216;-92
2022/10/09 04:15:04;;;;;;;6.20;4.72;;;;;;;8.65;95.78;98820.97;4090348;28;20758;-93
2022/10/09 04:17:07;;;;;;;4.90;4.38;;;;;;;8.68;95.87;98826.84;4090560;28;20208;-93
2022/10/09 04:19:11;;;;;;;13.07;5.60;;;;;;;8.70;94.13;98826.78;4119228;28;20215;-93
2022/10/09 04:21:14;;;;;;;8.60;4.32;;;;;;;8.72;95.77;98830.13;4087548;28;20214;-92
2022/10/09 04:23:17;;;;;;;8.45;4.35;;;;;;;8.75;95.37;98830.00;4092836;28;20241;-93
2022/10/09 04:25:20;;;;;;;8.23;4.85;;;;;;;8.76;94.27;98829.91;4089532;28;20271;-93
2022/10/09 04:27:23;;;;;;;7.90;4.93;;;;;;;8.78;94.57;98827.25;4092403;28;20265;-93
2022/10/09 04:29:27;;;;;;;7.68;4.68;;;;;;;8.79;94.98;98821.13;4108285;28;20216;-92
2022/10/09 04:31:31;;;;;;;5.35;4.40;;;;;;;8.81;94.75;98829.69;4103367;28;20252;-93
2022/10/09 04:33:34;;;;;;;6.22;4.93;;;;;;;8.81;95.37;98832.28;4126549;28;20906;-94
2022/10/09 04:35:41;;;;;;;11.55;5.40;;;;;;;8.79;94.09;98826.34;4093776;28;20214;-93
2022/10/09 04:37:44;;;;;;;8.43;5.28;;;;;;;8.78;94.50;98824.63;4097479;28;20739;-92
2022/10/09 04:39:47;;;;;;;7.95;4.70;;;;;;;8.79;94.55;98836.72;4107293;28;20235;-91
2022/10/09 04:41:51;;;;;;;6.45;4.65;;;;;;;8.80;95.29;98830.63;4108480;28;20693;-92
2022/10/09 04:43:54;;;;;;;7.10;4.97;;;;;;;8.77;94.20;98828.19;4118526;28;20239;-92
2022/10/09 04:45:59;;;;;;;7.22;4.95;;;;;;;8.69;95.18;98817.28;4091189;28;20269;-93
2022/10/09 04:48:02;;;;;;;5.70;5.10;;;;;;;8.56;94.66;98824.03;4107463;28;20641;-94
2022/10/09 04:50:06;;;;;;;6.72;5.00;;;;;;;8.47;94.27;98816.66;4093113;28;20209;-92
2022/10/09 04:52:09;;;;;;;7.65;5.55;;;;;;;8.41;95.05;98819.56;4092579;28;20237;-92
2022/10/09 04:54:12;;;;;;;6.45;5.55;;;;;;;8.42;94.21;98821.25;4099749;28;20214;-93
2022/10/09 04:56:18;;;;;;;6.45;5.10;;;;;;;8.42;95.24;98817.78;4109352;28;20205;-93
2022/10/09 04:58:21;;;;;;;5.32;4.60;;;;;;;8.44;95.47;98822.84;4109302;28;20220;-92
2022/10/09 05:00:24;;;;;;;6.30;5.38;;;;;;;8.47;95.04;98827.06;4105072;28;20239;-93
2022/10/09 05:02:28;;;;;;;8.55;5.13;;;;;;;8.45;95.43;98819.34;4108498;28;20239;-93
2022/10/09 05:04:31;;;;;;;6.13;5.53;;;;;;;8.47;94.32;98824.47;4127107;28;20230;-94
2022/10/09 05:06:34;;;;;;;8.23;6.05;;;;;;;8.51;94.65;98820.81;4095415;28;20300;-93
2022/10/09 05:08:38;;;;;;;8.43;6.18;;;;;;;8.52;95.10;98815.53;4101139;28;20206;-92
2022/10/09 05:10:41;;;;;;;8.95;5.95;;;;;;;8.52;95.20;98818.13;4109103;28;20266;-93
2022/10/09 05:12:44;;;;;;;6.35;5.47;;;;;;;8.49;95.38;98814.81;4108116;28;20218;-93
2022/10/09 05:14:47;;;;;;;7.93;5.68;;;;;;;8.50;95.10;98819.94;4106386;28;20213;-92
2022/10/09 05:16:51;;;;;;;6.15;5.30;;;;;;;8.50;94.47;98826.91;4105528;28;20201;-93
2022/10/09 05:19:16;;;;;;;10.23;5.80;;;;;;;8.50;94.49;98829.50;4104283;28;20296;-94
2022/10/09 05:21:19;;;;;;;8.82;5.20;;;;;;;8.50;94.31;98830.34;4091886;28;20256;-93
2022/10/09 05:23:22;;;;;;;6.40;5.45;;;;;;;8.50;94.94;98826.91;4120620;28;20243;-94
2022/10/09 05:25:25;;;;;;;8.30;6.05;;;;;;;8.46;93.98;98836.63;4107695;28;20685;-93
2022/10/09 05:27:28;;;;;;;8.82;5.28;;;;;;;8.46;93.82;98822.78;4092513;28;20454;-93
2022/10/09 05:29:31;;;;;;;8.75;5.70;;;;;;;8.45;93.89;98823.72;4092563;28;20214;-92
2022/10/09 05:31:34;;;;;;;7.63;6.05;;;;;;;8.46;94.98;98826.22;4107038;28;20205;-93
2022/10/09 05:33:37;;;;;;;7.32;6.03;;;;;;;8.45;93.82;98826.31;4092144;28;20581;-93
2022/10/09 05:35:50;;;;;;;8.15;6.43;;;;;;;8.44;93.98;98814.22;4120746;28;20665;-93
2022/10/09 05:37:53;;;;;;;7.35;6.18;;;;;;;8.44;94.27;98817.66;4090429;28;20212;-92
2022/10/09 05:39:56;;;;;;;5.90;5.30;;;;;;;8.46;93.98;98825.38;4092665;28;20202;-93
2022/10/09 05:41:59;;;;;;;9.52;6.20;;;;;;;8.48;95.18;98823.56;4100080;28;20239;-93
2022/10/09 05:44:03;;;;;;;7.53;5.53;;;;;;;8.45;95.18;98821.13;4114890;28;20791;-92
2022/10/09 05:46:08;;;;;;;12.82;5.80;;;;;;;8.45;94.89;98819.34;4109469;28;20234;-92
2022/10/09 05:48:11;;;;;;;6.68;5.93;;;;;;;8.45;94.71;98824.53;4130274;28;20307;-93
2022/10/09 05:50:14;;;;;;;6.63;5.93;;;;;;;8.47;94.03;98824.47;4109548;28;20204;-93
2022/10/09 05:52:19;;;;;;;7.40;6.03;;;;;;;8.45;95.61;98819.34;4098945;28;20665;-93
2022/10/09 05:54:22;;;;;;;7.55;5.80;;;;;;;8.47;95.29;98816.66;4123659;28;20200;-92
2022/10/09 05:56:26;;;;;;;6.70;5.40;;;;;;;8.50;94.89;98819.13;4109351;28;20208;-93
2022/10/09 05:58:29;;;;;;;8.30;5.82;;;;;;;8.53;95.85;98821.56;4114648;28;20259;-93
2022/10/09 06:00:32;;;;;;;8.85;5.50;;;;;;;8.60;94.54;98820.34;4097603;28;20251;-93
2022/10/09 06:02:35;;;;;;;6.90;5.53;;;;;;;8.71;95.04;98815.47;4112641;28;20638;-93
2022/10/09 06:04:38;;;;;;;8.27;5.53;;;;;;;8.85;96.08;98816.47;4096220;28;20237;-92
2022/10/09 06:06:41;;;;;;;9.00;5.30;;;;;;;9.01;95.56;98822.59;4116859;28;20234;-92
2022/10/09 06:08:46;;;;;;;6.57;5.78;;;;;;;9.20;96.20;98811.16;4112354;28;20405;-93
2022/10/09 06:10:49;;;;;;;7.82;5.72;;;;;;;9.39;95.56;98820.53;4091643;28;20309;-92
2022/10/09 06:12:52;;;;;;;9.90;6.38;;;;;;;9.64;95.01;98827.91;4091540;28;20213;-94
2022/10/09 06:14:55;;;;;;;7.10;5.70;;;;;;;9.81;94.87;98818.28;4106968;28;20735;-94
2022/10/09 06:17:00;;;;;;;14.15;6.00;;;;;;;9.99;94.50;98825.97;4116579;28;20744;-94
2022/10/09 06:19:04;;;;;;;7.43;5.57;;;;;;;10.15;93.21;98834.63;4106994;28;20209;-94
2022/10/09 06:21:07;;;;;;;9.30;5.82;;;;;;;10.32;92.51;98831.94;4106459;28;20214;-91
2022/10/09 06:23:10;;;;;;;8.47;6.43;;;;;;;10.49;92.30;98834.44;4089031;28;20213;-93
2022/10/09 06:25:15;;;;;;;7.40;5.00;;;;;;;10.65;91.91;98837.88;4089598;28;20784;-94
2022/10/09 06:27:18;;;;;;;7.63;5.97;;;;;;;10.74;90.30;98834.75;4109064;28;20657;-94
2022/10/09 06:29:21;;;;;;;8.05;5.47;;;;;;;10.94;91.60;98836.09;4094855;28;20650;-94
2022/10/09 06:31:26;;;;;;;7.97;6.28;;;;;;;11.21;91.69;98847.56;4104150;28;25018;-94
2022/10/09 06:33:31;;;;;;;8.97;5.77;;;;;;;11.39;91.83;98849.06;4111788;28;20244;-94
2022/10/09 06:35:34;;;;;;;7.60;5.43;;;;;;;11.61;91.63;98846.91;4115057;28;20664;-92
2022/10/09 06:37:37;;;;;;;7.07;5.63;;;;;;;11.75;89.12;98859.97;4109550;28;20647;-95
2022/10/09 06:39:40;;;;;;;7.03;6.33;;;;;;;11.89;89.92;98850.34;4111322;28;20656;-92
2022/10/09 06:41:45;;;;;;;7.60;5.50;;;;;;;11.99;87.22;98847.06;4110798;28;20651;-94
2022/10/09 06:44:15;;;;;;;13.70;7.43;;;;;;;12.12;86.95;98852.38;4094921;28;21095;-93
2022/10/09 06:46:20;;;;;;;9.10;7.47;;;;;;;12.20;87.38;98852.75;4111287;28;20644;-94
2022/10/09 06:48:23;;;;;;;8.40;7.60;;;;;;;12.28;86.86;98853.94;4110210;28;20647;-94
2022/10/09 06:50:26;;;;;;;10.55;7.38;;;;;;;12.37;88.03;98853.34;4126455;28;20685;-93
2022/10/09 06:52:29;;;;;;;11.50;8.20;;;;;;;12.57;85.45;98863.38;4091858;28;20205;-95
2022/10/09 06:54:33;;;;;;;11.45;9.00;;;;;;;12.58;86.84;98867.69;4124730;28;20815;-93
2022/10/09 06:56:36;;;;;;;11.23;8.03;;;;;;;12.73;87.00;98860.56;4103958;28;20237;-94
2022/10/09 06:58:40;;;;;;;8.10;6.70;;;;;;;12.94;87.99;98864.41;4115333;28;20644;-94
2022/10/09 07:00:43;;;;;;;10.00;6.17;;;;;;;13.25;87.66;98866.69;4106394;28;20671;-94
2022/10/09 07:02:46;;;;;;;8.57;5.73;;;;;;;13.46;85.49;98866.09;4113407;28;21379;-93
2022/10/09 07:04:50;;;;;;;8.90;5.90;;;;;;;13.50;84.51;98859.72;4105740;28;20628;-94
2022/10/09 07:06:53;;;;;;;7.80;5.90;;;;;;;13.53;83.68;98866.50;4114767;28;20668;-93
2022/10/09 07:08:59;;;;;;;8.97;5.57;;;;;;;13.63;84.27;98868.41;4109208;28;21006;-93
2022/10/09 07:11:08;;;;;;;7.10;5.57;;;;;;;13.70;83.21;98870.50;4110022;28;20639;-94
2022/10/09 07:13:11;;;;;;;7.17;5.57;;;;;;;13.76;82.34;98867.47;4109941;28;20654;-93
2022/10/09 07:15:16;;;;;;;6.43;5.20;;;;;;;13.78;83.01;98867.38;4090156;28;20636;-94
2022/10/09 07:17:18;;;;;;;10.03;6.23;;;;;;;13.90;83.36;98862.09;4119481;28;21366;-94
2022/10/09 07:19:22;;;;;;;8.10;6.07;;;;;;;13.95;81.31;98865.28;4091396;28;20638;-94
2022/10/09 07:21:25;;;;;;;8.80;6.00;;;;;;;14.04;84.54;98859.34;4106787;28;21059;-94
2022/10/09 07:23:28;;;;;;;8.30;6.50;;;;;;;14.17;83.57;98863.66;4089476;28;20637;-92
2022/10/09 07:25:31;;;;;;;10.93;5.83;;;;;;;14.29;81.63;98870.69;4119159;28;20671;-94
2022/10/09 07:27:35;;;;;;;7.30;5.70;;;;;;;14.40;83.19;98869.91;4122133;28;20741;-92
2022/10/09 07:29:38;;;;;;;7.13;5.47;;;;;;;14.55;83.63;98871.44;4109532;28;21034;-95
2022/10/09 07:31:43;;;;;;;7.30;5.50;;;;;;;14.72;81.69;98872.75;4102212;28;20655;-93
2022/10/09 07:33:47;;;;;;;6.97;5.40;;;;;;;14.89;81.43;98874.16;4086985;28;20649;-91
2022/10/09 07:35:54;;;;;;;6.90;4.30;;;;;;;15.03;82.32;98877.44;4106251;28;20744;-91
2022/10/09 07:37:57;;;;;;;6.43;4.03;;;;;;;15.19;79.24;98884.13;4113705;28;20640;-91
2022/10/09 07:40:00;;;;;;;7.30;4.40;;;;;;;15.36;77.94;98877.59;4105152;28;20641;-91
2022/10/09 07:42:03;;;;;;;6.60;4.20;;;;;;;15.55;77.85;98874.31;4107522;28;20636;-92
2022/10/09 07:44:06;;;;;;;7.83;4.20;;;;;;;15.62;78.13;98874.69;4130157;28;20631;-91
2022/10/09 07:46:12;;;;;;;6.43;4.70;;;;;;;15.71;75.19;98874.84;4110009;28;20633;-90
2022/10/09 07:48:18;;;;;;;7.20;4.50;;;;;;;15.74;76.32;98869.34;4130510;28;20691;-91
2022/10/09 07:50:21;;;;;;;7.83;4.13;;;;;;;15.73;75.24;98867.66;4096078;28;20991;-90
2022/10/09 07:52:24;;;;;;;9.93;4.23;;;;;;;15.87;75.64;98871.88;4113907;28;20651;-89
2022/10/09 07:54:27;;;;;;;6.50;4.40;;;;;;;15.92;74.05;98862.66;4098444;28;20673;-91
2022/10/09 07:56:31;;;;;;;6.80;4.03;;;;;;;15.95;74.76;98866.84;4094846;28;20651;-92
2022/10/09 07:58:34;;;;;;;6.97;4.03;;;;;;;15.95;74.99;98867.69;4111963;28;20723;-93
2022/10/09 08:00:38;;;;;;;7.53;4.20;;;;;;;16.06;73.50;98854.53;4112789;28;20657;-93
2022/10/09 08:02:41;;;;;;;7.80;4.30;;;;;;;16.20;73.96;98868.28;4111200;28;20634;-90
2022/10/09 08:04:45;;;;;;;6.97;4.53;;;;;;;16.18;73.00;98854.41;4109825;28;20718;-90
2022/10/09 08:06:48;;;;;;;9.30;4.10;;;;;;;16.27;73.85;98856.34;4104948;28;20634;-91
2022/10/09 08:08:53;;;;;;;4.07;3.63;;;;;;;16.46;73.92;98864.44;4104040;28;20677;-91
2022/10/09 08:10:56;;;;;;;5.23;3.80;;;;;;;16.53;70.86;98865.66;4106702;28;20741;-92
2022/10/09 08:12:59;;;;;;;5.93;3.70;;;;;;;16.33;72.06;98857.69;4104090;28;20646;-91
2022/10/09 08:15:02;;;;;;;6.00;3.83;;;;;;;16.43;70.60;98851.53;4125617;28;20711;-91
2022/10/09 08:17:05;;;;;;;6.00;3.83;;;;;;;16.52;72.65;98862.19;4110648;28;21064;-91
2022/10/09 08:19:09;;;;;;;6.83;4.10;;;;;;;16.57;70.76;98856.56;4114007;28;20696;-90
2022/10/09 08:21:15;;;;;;;5.60;3.60;;;;;;;16.58;72.35;98856.44;4101229;28;20996;-90
2022/10/09 08:23:18;;;;;;;7.10;4.57;;;;;;;16.67;70.34;98854.84;4110785;28;20646;-90
2022/10/09 08:25:21;;;;;;;6.90;3.63;;;;;;;16.62;71.80;98857.84;4090367;28;21203;-91
2022/10/09 08:27:24;;;;;;;8.57;4.20;;;;;;;16.64;69.27;98853.31;4109693;28;21209;-91
2022/10/09 08:29:27;;;;;;;5.40;3.63;;;;;;;16.69;70.76;98853.75;4110146;28;20642;-90
2022/10/09 08:31:31;;;;;;;5.27;3.97;;;;;;;16.74;70.25;98854.22;4111253;28;20728;-90
2022/10/09 08:33:34;;;;;;;5.93;3.73;;;;;;;16.71;70.85;98848.38;4096009;28;20717;-93
2022/10/09 08:35:39;;;;;;;6.07;3.80;;;;;;;16.61;71.42;98850.91;4112508;28;20688;-96
2022/10/09 08:37:45;;;;;;;7.20;3.97;;;;;;;16.61;70.27;98850.91;4096209;28;20639;-93
2022/10/09 08:39:48;;;;;;;5.33;3.80;;;;;;;16.74;70.89;98848.94;4107470;28;20692;-92
2022/10/09 08:41:53;;;;;;;9.23;4.27;;;;;;;16.76;69.51;98844.38;4113860;28;21252;-91
2022/10/09 08:44:00;;;;;;;5.27;3.67;;;;;;;16.73;69.89;98844.66;4094973;28;20690;-90
2022/10/09 08:46:08;;;;;;;5.30;3.80;;;;;;;16.72;70.41;98840.34;4110535;28;20632;-91
2022/10/09 08:48:14;;;;;;;6.60;3.20;;;;;;;16.72;70.34;98839.53;4108975;28;21096;-91
2022/10/09 08:50:21;;;;;;;5.60;3.60;;;;;;;16.73;69.92;98835.91;4116242;28;20641;-91
2022/10/09 08:52:33;;;;;;;6.10;3.87;;;;;;;16.72;68.41;98842.97;4090855;28;20635;-92
2022/10/09 08:54:39;;;;;;;4.87;3.57;;;;;;;16.80;70.50;98835.28;4107784;28;20640;-90
2022/10/09 08:56:42;;;;;;;4.57;3.67;;;;;;;16.93;69.60;98838.59;4091575;28;21037;-89
2022/10/09 08:58:45;;;;;;;5.50;3.23;;;;;;;16.90;69.68;98830.94;4121146;28;21217;-88
2022/10/09 09:00:50;;;;;;;5.40;3.50;;;;;;;17.05;69.95;98834.97;4110528;28;21078;-88
2022/10/09 09:03:19;;;;;;;4.57;3.23;;;;;;;17.03;70.26;98831.59;4111902;28;20643;-91
2022/10/09 09:05:31;;;;;;;4.37;3.43;;;;;;;16.98;69.66;98821.44;4091416;28;20745;-92
2022/10/09 09:07:40;;;;;;;5.50;3.60;;;;;;;16.92;69.76;98825.56;4107432;28;21218;-90
2022/10/09 09:09:53;;;;;;;7.17;3.70;;;;;;;16.97;69.45;98826.00;4092702;28;21032;-91
2022/10/09 09:12:00;;;;;;;6.47;3.90;;;;;;;16.96;69.57;98825.19;4091087;28;20654;-92
2022/10/09 09:14:17;;;;;;;6.07;3.53;;;;;;;16.90;70.33;98820.41;4107142;28;20722;-92
2022/10/09 09:16:27;;;;;;;4.77;3.27;;;;;;;17.04;70.46;98825.38;4107289;28;20696;-90
2022/10/09 09:18:37;;;;;;;5.30;3.60;;;;;;;17.06;69.03;98813.75;4121242;28;20749;-90
2022/10/09 09:20:51;;;;;;;6.53;3.87;;;;;;;17.18;69.83;98819.78;4111443;28;20634;-91
2022/10/09 09:22:56;;;;;;;4.83;3.20;;;;;;;17.23;68.46;98815.84;4109988;28;20694;-92
2022/10/09 09:25:02;;;;;;;3.70;3.03;;;;;;;17.20;68.81;98812.56;4093652;28;20686;-89
2022/10/09 09:27:11;;;;;;;5.00;3.53;;;;;;;17.31;69.63;98817.84;4107117;28;20706;-91
2022/10/09 09:29:16;;;;;;;7.13;3.67;;;;;;;17.34;69.77;98809.69;4108317;28;20666;-91
2022/10/09 09:31:23;;;;;;;6.80;4.43;;;;;;;17.36;70.10;98810.38;4109077;28;20835;-91
2022/10/09 09:33:33;;;;;;;6.87;3.60;;;;;;;17.51;70.12;98817.84;4110844;28;20646;-91
2022/10/09 09:35:48;;;;;;;5.30;3.40;;;;;;;17.51;68.60;98809.91;4107725;28;20646;-90
2022/10/09 09:37:51;;;;;;;5.17;3.37;;;;;;;17.50;67.54;98811.72;4092143;28;20743;-89
2022/10/09 09:39:54;;;;;;;4.53;3.17;;;;;;;17.57;67.01;98802.31;4103011;28;20647;-89
2022/10/09 09:42:20;;;;;;;7.07;3.50;;;;;;;17.56;66.17;98805.06;4101662;28;21433;-92
2022/10/09 09:44:25;;;;;;;5.40;2.93;;;;;;;17.58;67.15;98806.63;4122531;28;20645;-91
2022/10/09 09:46:30;;;;;;;5.00;2.50;;;;;;;17.42;64.99;98799.31;4093597;28;20742;-89
2022/10/09 09:48:35;;;;;;;4.70;3.10;;;;;;;17.46;65.14;98797.13;4118164;28;20645;-91
2022/10/09 09:50:41;;;;;;;3.60;3.10;;;;;;;17.51;64.59;98784.41;4101086;28;21256;-91